首页
METAR-TAF:

METAR-TAF

机场 :

Greenbrier Valley Airport

Lewisburg, 西維吉尼亞州, 美国

纬度: 37-52N, 经度: 080-24W, 海拔: 702米

当前天气观测

该预报发布于23分钟前的04:15 UTC
静风
温度 18°C
湿度 94%
气压 1022 hPa
能見度: 16.1公里
天空无云

METAR: KLWB 250415Z AUTO 00000KT 10SM CLR 18/17 A3019 RMK AO2 T01770170

时间: 00:38 (04:38 UTC)

预报

该预报发布于2小时和12分钟前的02:26 UTC
预报有效从25日的 02点(UTC)到 25日的 24点(UTC)
风速3节,风向多变
能見度: 10公里
散云层高于4500英尺
从 25日的 0600点(UTC)
风速3节,风向多变
能見度: 8.0公里
散云层高于300英尺
轻雾
短暂存在
从 25日的 10点(UTC)到 25日的 12点(UTC)
能見度: 0.8公里
阴天层高于100英尺
从 25日的 1500点(UTC)
风速3节,风向南转南东
能見度: 10公里
多云层高于1200英尺
从 25日的 1800点(UTC)
风速3节,风向南转南东
能見度: 10公里
阴天层高于5000英尺

TAF: KLWB 250226Z 2502/2524 VRB03KT P6SM SCT045 FM250600 VRB03KT 5SM BR SCT003 TEMPO 2510/2512 1/2SM FG OVC001 FM251500 16003KT P6SM BKN012 FM251800 15003KT P6SM OVC050

超过4000个机场的气象观测和天气预报(METAR&TAF报告)。

可查询的气象台以黄色和红色小点在地图上表示。

将鼠标移到小点上方,可查看气象台名称。

然后点击查看天气观测和预报。

如需切换地图:点击带黑十字的绿色按钮放大地图;点击带横线的绿色按钮缩小地图;或者点击绿色箭头查看邻近地区的地图。


METAR-TAF: